Vilanova de Sau





Hora UTC 10:40
Temperatura 16.8 ºC
Humitat 59.4 %
Pressió 1011.0 hPa
Pluja 0.6 mm
Velocitat vent 6.4 km/h
Direcció vent SW
Radiació solar 807.0 W/m²
Fuel 42.0 %

Dades diàries 2021-05-14



Hora UTC (hivern +1h; estiu +2h)
Temperatura (ºC) Humitat (%) Pressió (hPa) Velocitat vent (km/h) Precipitació (mm) Fuel (%) Radiació solar (W/m²)
Hora UTC Aire Humitat Pressió Vel. Dir. Vel. Max Dir. Intent. màx 5 min. Fuel Rad. Sol.
00:05 12.7 77.7 1009.2 0.1 NNE 0.1 N 0.0 21.2 0.0
00:10 12.5 79.4 1009.2 0.4 WSW 6.1 SW 0.0 21.4 0.0
00:15 12.2 80.6 1009.2 3.3 WSW 6.1 WSW 0.0 21.7 0.0
00:20 12.1 80.5 1009.2 3.4 W 6.1 WSW 0.0 22.1 0.0
00:25 12.2 80.5 1009.2 3.5 WSW 8.8 W 0.0 22.4 0.0
00:30 12.0 81.6 1009.3 0.9 SW 6.1 SW 0.0 22.7 0.0
00:35 11.9 82.4 1009.2 1.5 S 8.8 SSW 0.0 23.1 0.0
00:40 12.3 80.8 1009.2 0.5 SW 6.1 WSW 0.0 23.5 0.0
00:45 12.3 81.1 1009.2 0.1 SW 3.4 SW 0.0 23.8 0.0
00:50 12.2 81.8 1009.2 0.7 SSW 3.4 SSW 0.0 24.0 0.0
00:55 12.3 82.2 1009.1 0.0 NNE 0.0 SSW 0.0 24.3 0.0
01:00 12.4 81.2 1009.1 0.7 SSE 8.8 SSE 0.0 24.6 0.0
01:05 12.4 81.3 1009.1 0.0 NNE 0.0 SE 0.0 24.8 0.0
01:10 12.4 81.4 1009.1 0.0 NNE 0.0 SSW 0.0 25.1 0.0
01:15 12.4 81.8 1009.0 0.0 NNE 0.0 SSW 0.0 25.3 0.0
01:20 12.4 81.6 1008.9 0.0 NNE 0.0 SSW 0.0 25.6 0.0
01:25 12.5 81.7 1009.0 0.0 NNE 0.0 WSW 0.0 25.8 0.0
01:30 12.5 81.5 1009.0 0.7 SW 6.1 SW 0.0 26.0 0.0
01:35 12.5 81.9 1009.0 0.6 S 6.1 S 0.0 26.3 0.0
01:40 12.5 81.6 1008.9 0.0 NNE 0.0 S 0.0 26.5 0.0
01:45 12.5 82.0 1008.8 0.0 NNE 0.0 S 0.0 26.7 0.0
01:50 12.5 81.5 1008.8 0.3 WSW 3.4 WSW 0.0 26.9 0.0
01:55 12.5 81.4 1008.7 1.6 WSW 6.1 W 0.0 27.2 0.0
02:00 12.6 80.1 1008.7 4.4 W 8.8 W 0.0 27.3 0.0
02:05 12.7 79.8 1008.8 2.2 SW 6.1 WSW 0.0 27.5 0.0
02:10 12.6 80.6 1008.8 2.5 ENE 8.8 ENE 0.0 27.7 0.0
02:15 12.2 82.9 1008.8 1.4 E 6.1 E 0.0 27.8 0.0
02:20 12.1 83.2 1008.8 0.7 SE 6.1 SE 0.0 27.9 0.0
02:25 12.0 83.3 1008.8 0.0 NNE 0.0 SE 0.0 28.1 0.0
02:30 12.0 83.6 1008.7 0.0 NNE 0.0 SSE 0.0 28.4 0.0
02:35 11.9 84.2 1008.7 0.0 NNE 0.0 SE 0.0 28.6 0.0
02:40 11.9 84.2 1008.7 0.0 NNE 0.0 SE 0.0 28.9 0.0
02:45 11.8 84.5 1008.7 0.5 WNW 6.1 W 0.0 29.2 0.0
02:50 11.8 84.6 1008.7 1.9 WNW 6.1 WNW 0.0 29.5 0.0
02:55 11.8 84.6 1008.7 0.9 W 3.4 WSW 0.0 29.7 0.0
03:00 11.8 85.0 1008.6 0.1 W 3.4 W 0.0 30.0 0.0
03:05 11.8 85.3 1008.5 0.0 SW 3.4 SW 0.0 30.3 0.0
03:10 11.8 85.6 1008.5 0.9 SW 3.4 WSW 0.0 30.5 0.0
03:15 11.7 86.0 1008.6 0.0 NNE 0.0 SW 0.0 30.8 0.0
03:20 11.7 86.2 1008.6 0.2 WSW 3.4 W 0.0 31.1 0.0
03:25 11.7 85.9 1008.6 0.2 WSW 3.4 WSW 0.0 31.3 0.0
03:30 11.7 86.1 1008.6 0.0 NNE 0.0 WSW 0.0 31.6 0.0
03:35 11.8 85.7 1008.7 0.0 NNE 0.0 WSW 0.0 31.9 0.0
03:40 11.8 86.1 1008.7 0.0 NNE 0.0 W 0.0 32.1 0.0
03:45 11.8 86.7 1008.7 0.0 NNE 0.0 W 0.0 32.4 0.0
03:50 11.8 87.0 1008.7 0.0 NNE 0.0 W 0.0 32.7 0.0
03:55 11.7 87.0 1008.7 0.0 NNE 0.0 W 0.0 33.0 0.0
04:00 11.7 87.7 1008.7 0.0 NNE 0.0 W 0.0 33.3 0.0
04:05 11.7 87.9 1008.6 0.0 NNE 0.0 W 0.0 33.6 0.0
04:10 11.7 88.0 1008.7 0.0 NNE 0.0 W 0.0 33.9 0.0
04:15 11.6 88.1 1008.7 0.0 NNE 0.0 W 0.0 34.2 0.0
04:20 11.6 87.3 1008.7 2.3 SW 6.1 SSW 0.0 34.5 0.0
04:25 11.6 86.1 1008.8 2.7 WSW 6.1 SW 0.0 34.6 0.1
04:30 11.6 85.8 1008.8 2.2 SW 6.1 WSW 0.0 34.7 0.2
04:35 11.6 85.6 1008.7 1.2 SW 6.1 SSW 0.0 34.9 0.5
04:40 11.6 85.8 1008.7 0.0 S 3.4 S 0.0 35.1 1.3
04:45 11.6 85.7 1008.7 0.5 WSW 3.4 WSW 0.0 35.4 1.2
04:50 11.7 85.7 1008.8 2.5 WSW 6.1 WSW 0.0 35.6 1.4
04:55 11.7 85.4 1008.8 0.6 W 3.4 W 0.0 35.8 2.0
05:00 11.8 86.2 1008.8 0.0 NNE 0.0 W 0.0 36.0 2.0
05:05 11.8 86.7 1008.9 0.0 NNE 0.0 W 0.0 36.3 3.2
05:10 11.7 87.1 1008.9 0.0 NNE 0.0 W 0.0 36.5 4.7
05:15 11.7 87.5 1008.9 0.0 NNE 0.0 W 0.0 36.8 6.3
05:20 11.7 87.5 1009.0 0.0 NNE 0.0 W 0.0 37.0 6.8
05:25 11.7 87.6 1009.0 0.0 NNE 0.0 W 0.0 37.2 8.0
05:30 11.7 87.8 1009.0 0.0 NNE 0.0 SW 0.0 37.5 9.8
05:35 11.7 86.3 1009.0 2.8 SW 8.8 SW 0.0 37.6 9.8
05:40 11.9 84.0 1009.0 2.1 SW 6.1 WSW 0.0 37.7 16.2
05:45 12.0 83.2 1009.1 0.1 SSW 3.4 WSW 0.0 37.8 25.2
05:50 12.0 83.3 1009.2 0.8 SW 6.1 SW 0.0 37.9 22.1
05:55 12.0 82.8 1009.2 0.6 S 3.4 SSE 0.0 38.0 22.7
06:00 12.0 82.4 1009.2 0.2 SSE 3.4 SE 0.0 38.0 22.9
06:05 12.0 83.1 1009.2 0.0 NNE 0.0 SSE 0.0 41.1 47.2
06:10 12.2 85.7 1009.3 0.0 NNE 0.0 SSE 0.0 52.4 61.5
06:15 12.1 86.3 1009.4 0.0 NNE 0.0 WSW 0.1 61.3 54.8
06:20 12.0 87.8 1009.5 0.0 NNE 0.0 WSW 0.1 70.4 46.6
06:25 12.0 89.3 1009.5 0.1 NE 3.4 NE 0.1 79.1 48.4
06:30 11.9 90.1 1009.6 0.0 NNE 0.0 NE 0.2 91.1 59.0
06:35 11.7 91.3 1009.6 0.0 E 3.4 E 0.1 98.5 77.9
06:40 11.6 91.8 1009.7 0.3 SE 6.1 ESE 0.0 99.9 100.4
06:45 11.8 92.5 1009.8 0.0 NNE 0.0 E 0.0 99.9 119.9
06:50 11.8 92.3 1009.8 0.0 NNE 0.0 WSW 0.0 99.8 75.3
06:55 11.9 91.9 1009.9 0.8 SW 3.4 SW 0.0 99.4 77.9
07:00 11.8 91.5 1009.9 4.6 S 8.8 SSW 0.0 98.9 64.0
07:05 11.8 91.9 1010.0 0.6 S 6.1 S 0.0 98.9 74.3
07:10 11.9 91.5 1010.1 2.1 SW 14.2 SSW 0.0 102.4 80.0
07:15 11.9 89.6 1010.1 4.3 WSW 14.2 SSW 0.0 104.2 58.7
07:20 12.0 89.8 1010.2 4.1 SSW 8.8 SSW 0.0 103.5 99.6
07:25 12.0 88.7 1010.2 3.1 WSW 11.5 W 0.0 102.7 122.6
07:30 12.1 88.3 1010.3 3.3 WSW 8.8 W 0.0 101.7 46.0
07:35 12.1 88.8 1010.3 0.9 WSW 6.1 WSW 0.0 102.5 46.4
07:40 12.0 88.7 1010.2 3.5 SW 14.2 S 0.0 103.1 110.1
07:45 12.1 88.1 1010.2 3.6 SW 11.5 SSW 0.0 102.2 193.1
07:50 12.2 87.1 1010.3 6.3 SSW 14.2 WSW 0.0 100.9 282.1
07:55 12.5 88.1 1010.4 4.5 SSW 11.5 S 0.0 99.9 335.8
08:00 12.7 86.4 1010.5 7.6 SSW 16.9 S 0.0 97.7 178.6
08:05 12.6 84.6 1010.5 7.2 SSW 16.9 SSE 0.0 96.0 195.4
08:10 12.7 84.3 1010.6 8.3 WSW 14.2 WSW 0.0 94.7 297.5
08:15 12.8 83.6 1010.7 6.3 WSW 11.5 WNW 0.0 93.0 206.0
08:20 12.9 83.1 1010.7 4.8 SSW 11.5 SSW 0.0 92.1 287.9
08:25 13.0 83.1 1010.6 5.0 WSW 11.5 WSW 0.0 90.6 320.8
08:30 13.4 82.6 1010.6 2.7 SW 11.5 SSW 0.0 89.6 490.4
08:35 14.3 82.0 1010.6 3.1 S 11.5 S 0.0 87.9 709.8
08:40 15.0 79.0 1010.7 4.4 SSW 11.5 SW 0.0 84.8 736.7
08:45 15.8 76.5 1010.7 3.9 SSW 11.5 SSE 0.0 81.3 741.2
08:50 15.4 73.5 1010.7 6.3 SW 14.2 WSW 0.0 76.7 371.0
08:55 15.2 74.0 1010.6 4.3 SW 19.6 S 0.0 75.0 694.3
09:00 15.6 74.2 1010.6 4.4 SSW 11.5 SSE 0.0 72.4 795.8
09:05 15.7 71.8 1010.7 7.5 SW 16.9 SW 0.0 69.1 758.9
09:10 15.6 70.1 1010.7 4.9 SE 11.5 SE 0.0 66.9 796.9
09:15 15.9 71.1 1010.7 9.9 SSE 19.6 SE 0.0 64.2 498.5
09:20 15.7 71.0 1010.8 6.1 SW 19.6 SW 0.0 62.8 863.0
09:25 16.2 68.5 1010.8 4.6 SSW 8.8 S 0.0 61.3 886.0
09:30 16.9 67.2 1010.7 2.1 S 11.5 S 0.0 59.4 882.0
09:35 17.3 65.9 1010.7 6.5 S 14.2 S 0.0 57.1 904.0
09:40 17.2 65.8 1010.8 10.8 SSW 22.3 SSW 0.0 54.9 915.0
09:45 16.9 65.7 1010.9 9.1 SW 16.9 SW 0.0 53.3 910.0
09:50 16.8 65.7 1010.9 6.7 SW 16.9 WSW 0.0 51.9 920.0
09:55 17.2 65.4 1010.9 8.2 SW 16.9 SE 0.0 50.8 950.0
10:00 17.2 64.9 1010.9 10.6 SW 19.6 WSW 0.0 49.5 990.0
10:05 17.1 64.3 1010.9 11.9 SW 22.3 SW 0.0 47.9 904.0
10:10 16.7 64.1 1010.8 11.6 WSW 22.3 W 0.0 46.6 855.0
10:15 16.8 64.4 1010.8 9.8 SW 19.6 SW 0.0 46.2 978.0
10:20 16.8 61.0 1010.8 9.4 SW 19.6 WSW 0.0 45.3 902.0
10:25 17.0 60.1 1010.8 7.3 SSW 14.2 SSW 0.0 43.5 559.6
10:30 17.3 58.6 1010.8 7.2 SSW 16.9 SW 0.0 43.9 830.0
10:35 17.0 58.5 1010.9 11.5 SSW 22.3 SW 0.0 41.3 173.7
10:40 16.8 59.4 1011.0 6.4 SW 14.2 SW 0.0 42.0 807.0
Màxima 17.4 92.5 1011.0 11.9 SW 22.3 SW 0.2 104.2 990.0
Mínima 11.5 58.5 1008.5 21.2
Total 0.6